sensor_id;sensor_type;location;lat;lon;timestamp;pressure;altitude;pressure_sealevel;temperature;humidity
38026;BME280;23836;48.430;9.888;2022-07-31T00:00:49;95391.81;;;18.17;71.06
38026;BME280;23836;48.430;9.888;2022-07-31T00:05:39;95342.03;;;17.75;69.97
38026;BME280;23836;48.430;9.888;2022-07-31T00:10:30;95331.78;;;16.92;72.20
38026;BME280;23836;48.430;9.888;2022-07-31T00:15:20;95425.03;;;17.62;74.95
38026;BME280;23836;48.430;9.888;2022-07-31T00:20:13;95385.75;;;17.61;73.27
38026;BME280;23836;48.430;9.888;2022-07-31T00:25:05;95364.69;;;17.69;72.48
38026;BME280;23836;48.430;9.888;2022-07-31T00:29:56;95393.03;;;18.00;71.62
38026;BME280;23836;48.430;9.888;2022-07-31T00:34:46;95419.50;;;17.93;72.10
38026;BME280;23836;48.430;9.888;2022-07-31T00:39:36;95425.97;;;17.87;72.05
38026;BME280;23836;48.430;9.888;2022-07-31T00:44:27;95420.31;;;17.83;72.36
38026;BME280;23836;48.430;9.888;2022-07-31T00:49:18;95346.84;;;17.43;71.91
38026;BME280;23836;48.430;9.888;2022-07-31T00:54:09;95415.69;;;17.94;71.90
38026;BME280;23836;48.430;9.888;2022-07-31T00:58:59;95408.19;;;17.86;71.49
38026;BME280;23836;48.430;9.888;2022-07-31T01:03:50;95398.03;;;17.73;70.77
38026;BME280;23836;48.430;9.888;2022-07-31T01:08:41;95381.59;;;17.35;71.94
38026;BME280;23836;48.430;9.888;2022-07-31T01:13:39;95293.19;;;16.57;73.35
38026;BME280;23836;48.430;9.888;2022-07-31T01:18:35;95345.75;;;16.84;73.60
38026;BME280;23836;48.430;9.888;2022-07-31T01:23:37;95406.84;;;17.44;73.85
38026;BME280;23836;48.430;9.888;2022-07-31T01:33:51;95287.00;;;16.62;73.15
38026;BME280;23836;48.430;9.888;2022-07-31T01:38:45;95408.56;;;17.19;73.28
38026;BME280;23836;48.430;9.888;2022-07-31T01:43:41;95370.78;;;16.85;73.60
38026;BME280;23836;48.430;9.888;2022-07-31T01:48:34;95386.56;;;17.07;73.30
38026;BME280;23836;48.430;9.888;2022-07-31T01:53:25;95386.59;;;16.97;73.65
38026;BME280;23836;48.430;9.888;2022-07-31T01:58:18;95408.56;;;17.19;72.26
38026;BME280;23836;48.430;9.888;2022-07-31T02:03:10;95385.00;;;17.01;73.53
38026;BME280;23836;48.430;9.888;2022-07-31T02:08:02;95391.31;;;17.25;72.79
38026;BME280;23836;48.430;9.888;2022-07-31T02:12:55;95383.34;;;17.15;72.87
38026;BME280;23836;48.430;9.888;2022-07-31T02:17:47;95287.03;;;16.57;71.84
38026;BME280;23836;48.430;9.888;2022-07-31T02:22:39;95405.38;;;17.17;73.29
38026;BME280;23836;48.430;9.888;2022-07-31T02:27:30;95366.22;;;16.80;71.52
38026;BME280;23836;48.430;9.888;2022-07-31T02:32:22;95410.84;;;16.81;72.54
38026;BME280;23836;48.430;9.888;2022-07-31T02:37:14;95387.28;;;16.47;74.10
38026;BME280;23836;48.430;9.888;2022-07-31T02:42:05;95304.91;;;16.01;73.91
38026;BME280;23836;48.430;9.888;2022-07-31T02:46:56;95342.69;;;16.31;73.73
38026;BME280;23836;48.430;9.888;2022-07-31T02:51:48;95409.78;;;16.77;74.33
38026;BME280;23836;48.430;9.888;2022-07-31T02:56:39;95392.06;;;16.66;72.98
38026;BME280;23836;48.430;9.888;2022-07-31T03:01:34;95406.56;;;16.75;73.41
38026;BME280;23836;48.430;9.888;2022-07-31T03:06:25;95370.63;;;16.45;73.53
38026;BME280;23836;48.430;9.888;2022-07-31T03:11:15;95381.38;;;16.40;74.02
38026;BME280;23836;48.430;9.888;2022-07-31T03:16:07;95292.06;;;15.88;75.97
38026;BME280;23836;48.430;9.888;2022-07-31T03:21:00;95311.06;;;15.97;76.74
38026;BME280;23836;48.430;9.888;2022-07-31T03:25:51;95235.66;;;15.73;75.85
38026;BME280;23836;48.430;9.888;2022-07-31T03:30:42;95400.63;;;16.88;76.10
38026;BME280;23836;48.430;9.888;2022-07-31T03:35:33;95353.41;;;16.62;74.43
38026;BME280;23836;48.430;9.888;2022-07-31T03:40:23;95326.56;;;16.41;74.98
38026;BME280;23836;48.430;9.888;2022-07-31T03:45:14;95402.22;;;16.84;75.75
38026;BME280;23836;48.430;9.888;2022-07-31T03:50:06;95348.03;;;16.62;74.19
38026;BME280;23836;48.430;9.888;2022-07-31T03:54:57;95167.75;;;15.72;74.15
38026;BME280;23836;48.430;9.888;2022-07-31T03:59:48;95345.81;;;16.74;73.17
38026;BME280;23836;48.430;9.888;2022-07-31T04:04:39;95398.22;;;16.82;75.50
38026;BME280;23836;48.430;9.888;2022-07-31T04:09:31;95373.75;;;16.78;74.50
38026;BME280;23836;48.430;9.888;2022-07-31T04:14:22;95306.16;;;16.35;74.39
38026;BME280;23836;48.430;9.888;2022-07-31T04:19:12;95269.66;;;16.29;73.78
38026;BME280;23836;48.430;9.888;2022-07-31T04:24:03;95357.63;;;16.78;73.49
38026;BME280;23836;48.430;9.888;2022-07-31T04:28:53;95224.13;;;15.87;73.66
38026;BME280;23836;48.430;9.888;2022-07-31T04:33:44;95413.44;;;17.17;72.92
38026;BME280;23836;48.430;9.888;2022-07-31T04:38:34;95356.03;;;16.77;72.27
38026;BME280;23836;48.430;9.888;2022-07-31T04:43:25;95358.69;;;16.87;73.30
38026;BME280;23836;48.430;9.888;2022-07-31T04:48:15;95411.31;;;17.14;74.57
38026;BME280;23836;48.430;9.888;2022-07-31T04:53:05;95354.13;;;16.77;73.24
38026;BME280;23836;48.430;9.888;2022-07-31T04:57:56;95300.22;;;16.48;74.30
38026;BME280;23836;48.430;9.888;2022-07-31T05:02:46;95393.53;;;17.18;74.24
38026;BME280;23836;48.430;9.888;2022-07-31T05:07:37;95354.81;;;17.14;75.46
38026;BME280;23836;48.430;9.888;2022-07-31T05:12:27;95404.50;;;17.72;73.39
38026;BME280;23836;48.430;9.888;2022-07-31T05:17:18;95302.13;;;17.08;75.15
38026;BME280;23836;48.430;9.888;2022-07-31T05:22:08;95410.06;;;17.91;73.62
38026;BME280;23836;48.430;9.888;2022-07-31T05:26:58;95350.72;;;17.67;73.24
38026;BME280;23836;48.430;9.888;2022-07-31T05:31:49;95396.25;;;18.03;73.50
38026;BME280;23836;48.430;9.888;2022-07-31T05:36:40;95368.75;;;18.06;74.24
38026;BME280;23836;48.430;9.888;2022-07-31T05:41:31;95406.56;;;18.54;74.15
38026;BME280;23836;48.430;9.888;2022-07-31T05:46:23;95399.47;;;18.63;72.93
38026;BME280;23836;48.430;9.888;2022-07-31T05:51:13;95397.94;;;18.81;72.63
38026;BME280;23836;48.430;9.888;2022-07-31T05:56:04;95347.19;;;18.83;71.93
38026;BME280;23836;48.430;9.888;2022-07-31T06:00:55;95406.03;;;19.30;71.80
38026;BME280;23836;48.430;9.888;2022-07-31T06:05:45;95343.78;;;19.21;72.65
38026;BME280;23836;48.430;9.888;2022-07-31T06:10:36;95316.25;;;19.76;72.63
38026;BME280;23836;48.430;9.888;2022-07-31T06:15:27;95288.34;;;20.27;66.37
38026;BME280;23836;48.430;9.888;2022-07-31T06:20:17;95394.84;;;21.70;64.86
38026;BME280;23836;48.430;9.888;2022-07-31T06:25:08;95417.34;;;21.94;66.26
38026;BME280;23836;48.430;9.888;2022-07-31T06:29:59;95400.47;;;21.97;63.78
38026;BME280;23836;48.430;9.888;2022-07-31T06:34:49;95367.44;;;21.72;63.99
38026;BME280;23836;48.430;9.888;2022-07-31T06:39:40;95392.06;;;22.43;65.19
38026;BME280;23836;48.430;9.888;2022-07-31T06:44:31;95382.47;;;22.77;63.67
38026;BME280;23836;48.430;9.888;2022-07-31T06:49:21;95378.00;;;22.73;61.01
38026;BME280;23836;48.430;9.888;2022-07-31T06:54:12;95420.25;;;22.65;64.50
38026;BME280;23836;48.430;9.888;2022-07-31T06:59:04;95403.38;;;22.46;64.88
38026;BME280;23836;48.430;9.888;2022-07-31T07:03:55;95418.94;;;22.62;55.51
38026;BME280;23836;48.430;9.888;2022-07-31T07:08:46;95379.78;;;22.86;58.92
38026;BME280;23836;48.430;9.888;2022-07-31T07:13:36;95407.75;;;23.27;57.43
38026;BME280;23836;48.430;9.888;2022-07-31T07:18:27;95371.31;;;23.19;60.17
38026;BME280;23836;48.430;9.888;2022-07-31T07:23:18;95338.41;;;23.21;61.55
38026;BME280;23836;48.430;9.888;2022-07-31T07:28:09;95366.72;;;23.55;58.01
38026;BME280;23836;48.430;9.888;2022-07-31T07:33:00;95402.91;;;24.08;53.80
38026;BME280;23836;48.430;9.888;2022-07-31T07:37:51;95366.38;;;24.35;53.26
38026;BME280;23836;48.430;9.888;2022-07-31T07:42:42;95347.84;;;25.14;52.70
38026;BME280;23836;48.430;9.888;2022-07-31T07:47:32;95318.06;;;25.60;49.73
38026;BME280;23836;48.430;9.888;2022-07-31T07:52:22;95352.59;;;25.26;48.58
38026;BME280;23836;48.430;9.888;2022-07-31T07:57:17;95368.31;;;24.90;46.83
38026;BME280;23836;48.430;9.888;2022-07-31T08:02:08;95353.22;;;24.93;49.46
38026;BME280;23836;48.430;9.888;2022-07-31T08:06:59;95335.63;;;25.20;49.08
38026;BME280;23836;48.430;9.888;2022-07-31T08:11:50;95379.31;;;26.05;47.30
38026;BME280;23836;48.430;9.888;2022-07-31T08:16:40;95343.50;;;26.85;44.06
38026;BME280;23836;48.430;9.888;2022-07-31T08:21:31;95345.19;;;27.15;42.82
38026;BME280;23836;48.430;9.888;2022-07-31T08:26:23;95371.06;;;27.42;41.90
38026;BME280;23836;48.430;9.888;2022-07-31T08:31:14;95321.31;;;27.77;42.21
38026;BME280;23836;48.430;9.888;2022-07-31T08:36:06;95327.25;;;28.07;40.51
38026;BME280;23836;48.430;9.888;2022-07-31T08:40:58;95361.59;;;28.49;40.50
38026;BME280;23836;48.430;9.888;2022-07-31T08:45:48;95315.34;;;28.16;39.77
38026;BME280;23836;48.430;9.888;2022-07-31T08:50:39;95339.50;;;27.85;40.18
38026;BME280;23836;48.430;9.888;2022-07-31T08:55:32;95353.47;;;27.68;39.90
38026;BME280;23836;48.430;9.888;2022-07-31T09:00:23;95356.13;;;27.39;39.17
38026;BME280;23836;48.430;9.888;2022-07-31T09:05:14;95395.09;;;25.99;41.69
38026;BME280;23836;48.430;9.888;2022-07-31T09:10:27;95380.97;;;25.55;42.20
38026;BME280;23836;48.430;9.888;2022-07-31T09:15:23;95362.03;;;25.28;41.48
38026;BME280;23836;48.430;9.888;2022-07-31T09:20:27;95358.50;;;25.28;43.20
38026;BME280;23836;48.430;9.888;2022-07-31T09:25:18;95314.28;;;25.01;40.30
38026;BME280;23836;48.430;9.888;2022-07-31T09:30:09;95369.75;;;25.98;42.07
38026;BME280;23836;48.430;9.888;2022-07-31T09:35:08;95386.91;;;26.66;42.05
38026;BME280;23836;48.430;9.888;2022-07-31T09:39:59;95340.53;;;27.52;39.67
38026;BME280;23836;48.430;9.888;2022-07-31T09:44:50;95334.50;;;29.59;37.29
38026;BME280;23836;48.430;9.888;2022-07-31T09:49:40;95371.88;;;31.31;33.25
38026;BME280;23836;48.430;9.888;2022-07-31T09:54:31;95284.34;;;30.87;33.80
38026;BME280;23836;48.430;9.888;2022-07-31T09:59:22;95335.16;;;31.73;32.62
38026;BME280;23836;48.430;9.888;2022-07-31T10:04:15;95310.47;;;34.29;29.26
38026;BME280;23836;48.430;9.888;2022-07-31T10:09:06;95345.72;;;33.73;31.13
38026;BME280;23836;48.430;9.888;2022-07-31T10:13:59;95345.53;;;36.94;27.42
38026;BME280;23836;48.430;9.888;2022-07-31T10:18:55;95314.13;;;37.50;26.26
38026;BME280;23836;48.430;9.888;2022-07-31T10:23:47;95300.13;;;38.29;24.61
38026;BME280;23836;48.430;9.888;2022-07-31T10:28:39;95328.72;;;34.74;27.05
38026;BME280;23836;48.430;9.888;2022-07-31T10:33:29;95336.59;;;34.57;28.23
38026;BME280;23836;48.430;9.888;2022-07-31T10:38:24;95339.13;;;33.92;27.07
38026;BME280;23836;48.430;9.888;2022-07-31T10:43:35;95339.00;;;35.20;26.09
38026;BME280;23836;48.430;9.888;2022-07-31T10:48:28;95307.00;;;34.76;24.77
38026;BME280;23836;48.430;9.888;2022-07-31T10:53:18;95335.75;;;32.20;28.91
38026;BME280;23836;48.430;9.888;2022-07-31T10:58:14;95334.66;;;34.97;29.12
38026;BME280;23836;48.430;9.888;2022-07-31T11:03:41;95319.22;;;34.75;27.43
38026;BME280;23836;48.430;9.888;2022-07-31T11:08:41;95337.44;;;34.76;28.97
38026;BME280;23836;48.430;9.888;2022-07-31T11:13:31;95333.84;;;34.64;26.66
38026;BME280;23836;48.430;9.888;2022-07-31T11:18:22;95328.56;;;32.91;30.34
38026;BME280;23836;48.430;9.888;2022-07-31T11:23:15;95323.06;;;33.39;32.35
38026;BME280;23836;48.430;9.888;2022-07-31T11:33:01;95265.00;;;35.60;28.44
38026;BME280;23836;48.430;9.888;2022-07-31T11:37:51;95303.47;;;35.15;26.85
38026;BME280;23836;48.430;9.888;2022-07-31T11:42:42;95260.41;;;32.87;29.24
38026;BME280;23836;48.430;9.888;2022-07-31T11:47:42;95254.72;;;32.21;30.42
38026;BME280;23836;48.430;9.888;2022-07-31T11:52:32;95271.06;;;35.12;28.37
38026;BME280;23836;48.430;9.888;2022-07-31T11:57:30;95292.25;;;33.30;29.92
38026;BME280;23836;48.430;9.888;2022-07-31T12:02:21;95291.31;;;32.22;29.60
38026;BME280;23836;48.430;9.888;2022-07-31T12:07:11;95286.63;;;31.92;32.22
38026;BME280;23836;48.430;9.888;2022-07-31T12:12:03;95277.66;;;35.68;27.53
38026;BME280;23836;48.430;9.888;2022-07-31T12:16:53;95236.34;;;36.06;25.92
38026;BME280;23836;48.430;9.888;2022-07-31T12:21:44;95229.53;;;38.74;24.74
38026;BME280;23836;48.430;9.888;2022-07-31T12:26:35;95240.03;;;37.77;25.00
38026;BME280;23836;48.430;9.888;2022-07-31T12:31:27;95260.78;;;36.86;25.11
38026;BME280;23836;48.430;9.888;2022-07-31T12:36:18;95252.91;;;34.82;27.58
38026;BME280;23836;48.430;9.888;2022-07-31T12:41:08;95251.53;;;29.82;32.19
38026;BME280;23836;48.430;9.888;2022-07-31T12:45:59;95212.56;;;28.02;38.23
38026;BME280;23836;48.430;9.888;2022-07-31T12:50:54;95249.50;;;28.24;37.20
38026;BME280;23836;48.430;9.888;2022-07-31T12:55:44;95202.06;;;28.52;38.14
38026;BME280;23836;48.430;9.888;2022-07-31T13:00:35;95255.31;;;29.38;37.10
38026;BME280;23836;48.430;9.888;2022-07-31T13:05:25;95238.50;;;29.40;35.75
38026;BME280;23836;48.430;9.888;2022-07-31T13:10:16;95241.91;;;28.34;37.16
38026;BME280;23836;48.430;9.888;2022-07-31T13:15:08;95229.16;;;27.93;37.73
38026;BME280;23836;48.430;9.888;2022-07-31T13:19:58;95205.31;;;26.97;38.96
38026;BME280;23836;48.430;9.888;2022-07-31T13:24:49;95193.84;;;26.91;38.43
38026;BME280;23836;48.430;9.888;2022-07-31T13:29:39;95154.38;;;26.76;38.96
38026;BME280;23836;48.430;9.888;2022-07-31T13:34:29;95209.44;;;27.44;38.85
38026;BME280;23836;48.430;9.888;2022-07-31T13:39:20;95191.44;;;27.43;38.49
38026;BME280;23836;48.430;9.888;2022-07-31T13:44:10;95209.69;;;27.26;38.84
38026;BME280;23836;48.430;9.888;2022-07-31T13:49:01;95215.25;;;27.30;40.72
38026;BME280;23836;48.430;9.888;2022-07-31T13:53:53;95179.50;;;27.35;37.97
38026;BME280;23836;48.430;9.888;2022-07-31T13:58:44;95184.09;;;27.18;39.74
38026;BME280;23836;48.430;9.888;2022-07-31T14:03:34;95180.53;;;26.90;39.64
38026;BME280;23836;48.430;9.888;2022-07-31T14:08:25;95169.84;;;27.53;37.64
38026;BME280;23836;48.430;9.888;2022-07-31T14:13:16;95195.75;;;28.32;38.37
38026;BME280;23836;48.430;9.888;2022-07-31T14:18:07;95170.03;;;28.05;38.48
38026;BME280;23836;48.430;9.888;2022-07-31T14:22:58;95192.91;;;27.97;37.90
38026;BME280;23836;48.430;9.888;2022-07-31T14:27:49;95133.63;;;27.00;38.41
38026;BME280;23836;48.430;9.888;2022-07-31T14:32:42;95145.59;;;26.83;38.63
38026;BME280;23836;48.430;9.888;2022-07-31T14:37:32;95179.16;;;26.96;38.25
38026;BME280;23836;48.430;9.888;2022-07-31T14:42:22;95108.72;;;27.17;38.33
38026;BME280;23836;48.430;9.888;2022-07-31T14:47:13;95083.00;;;27.18;37.48
38026;BME280;23836;48.430;9.888;2022-07-31T14:52:04;95134.88;;;27.31;38.58
38026;BME280;23836;48.430;9.888;2022-07-31T14:56:54;95128.88;;;26.84;39.35
38026;BME280;23836;48.430;9.888;2022-07-31T15:01:44;95159.31;;;27.11;38.36
38026;BME280;23836;48.430;9.888;2022-07-31T15:06:35;95097.84;;;27.33;39.58
38026;BME280;23836;48.430;9.888;2022-07-31T15:11:26;95134.00;;;27.71;37.41
38026;BME280;23836;48.430;9.888;2022-07-31T15:16:16;95120.34;;;27.14;37.64
38026;BME280;23836;48.430;9.888;2022-07-31T15:21:11;95063.38;;;26.60;39.20
38026;BME280;23836;48.430;9.888;2022-07-31T15:26:01;95111.91;;;27.19;37.36
38026;BME280;23836;48.430;9.888;2022-07-31T15:30:52;95154.47;;;27.93;38.87
38026;BME280;23836;48.430;9.888;2022-07-31T15:35:42;95100.13;;;27.75;38.27
38026;BME280;23836;48.430;9.888;2022-07-31T15:40:32;95118.47;;;27.91;38.53
38026;BME280;23836;48.430;9.888;2022-07-31T15:45:23;95128.97;;;27.73;37.32
38026;BME280;23836;48.430;9.888;2022-07-31T15:50:15;95130.50;;;27.42;39.16
38026;BME280;23836;48.430;9.888;2022-07-31T15:55:07;95130.69;;;27.49;38.08
38026;BME280;23836;48.430;9.888;2022-07-31T15:59:58;95108.22;;;27.28;39.53
38026;BME280;23836;48.430;9.888;2022-07-31T16:04:50;95117.81;;;27.34;39.83
38026;BME280;23836;48.430;9.888;2022-07-31T16:09:41;95115.16;;;27.53;39.05
38026;BME280;23836;48.430;9.888;2022-07-31T16:14:31;95080.22;;;27.31;36.62
38026;BME280;23836;48.430;9.888;2022-07-31T16:19:22;95061.50;;;26.88;41.70
38026;BME280;23836;48.430;9.888;2022-07-31T16:24:14;95086.28;;;26.96;39.66
38026;BME280;23836;48.430;9.888;2022-07-31T16:29:04;94987.19;;;26.67;39.09
38026;BME280;23836;48.430;9.888;2022-07-31T16:33:55;95052.03;;;27.43;37.75
38026;BME280;23836;48.430;9.888;2022-07-31T16:38:46;95086.78;;;27.42;36.57
38026;BME280;23836;48.430;9.888;2022-07-31T16:43:37;95068.59;;;27.05;38.94
38026;BME280;23836;48.430;9.888;2022-07-31T16:48:28;95060.44;;;26.65;38.74
38026;BME280;23836;48.430;9.888;2022-07-31T16:53:18;95035.84;;;26.65;39.24
38026;BME280;23836;48.430;9.888;2022-07-31T16:58:09;95026.84;;;26.36;38.30
38026;BME280;23836;48.430;9.888;2022-07-31T17:03:00;95064.22;;;26.48;38.78
38026;BME280;23836;48.430;9.888;2022-07-31T17:07:50;95053.84;;;26.53;39.68
38026;BME280;23836;48.430;9.888;2022-07-31T17:12:41;95088.81;;;26.88;40.84
38026;BME280;23836;48.430;9.888;2022-07-31T17:17:31;95084.59;;;26.91;39.85
38026;BME280;23836;48.430;9.888;2022-07-31T17:22:22;95059.47;;;26.85;42.15
38026;BME280;23836;48.430;9.888;2022-07-31T17:27:12;95093.66;;;26.95;41.46
38026;BME280;23836;48.430;9.888;2022-07-31T17:32:03;95074.84;;;26.78;41.90
38026;BME280;23836;48.430;9.888;2022-07-31T17:36:53;95094.47;;;26.96;42.49
38026;BME280;23836;48.430;9.888;2022-07-31T17:41:43;94976.44;;;26.05;43.83
38026;BME280;23836;48.430;9.888;2022-07-31T17:46:34;95068.78;;;26.44;43.40
38026;BME280;23836;48.430;9.888;2022-07-31T17:51:24;95105.69;;;26.66;44.99
38026;BME280;23836;48.430;9.888;2022-07-31T17:56:15;95078.91;;;26.31;44.85
38026;BME280;23836;48.430;9.888;2022-07-31T18:01:06;95063.91;;;26.12;45.07
38026;BME280;23836;48.430;9.888;2022-07-31T18:05:56;95068.13;;;25.73;44.98
38026;BME280;23836;48.430;9.888;2022-07-31T18:10:47;95089.59;;;25.74;45.55
38026;BME280;23836;48.430;9.888;2022-07-31T18:15:37;95087.06;;;25.81;45.84
38026;BME280;23836;48.430;9.888;2022-07-31T18:20:30;95075.50;;;25.72;45.79
38026;BME280;23836;48.430;9.888;2022-07-31T18:25:21;95035.72;;;25.46;46.09
38026;BME280;23836;48.430;9.888;2022-07-31T18:30:11;95040.72;;;25.57;46.57
38026;BME280;23836;48.430;9.888;2022-07-31T18:35:03;95056.63;;;25.55;46.59
38026;BME280;23836;48.430;9.888;2022-07-31T18:39:54;95105.13;;;25.74;45.17
38026;BME280;23836;48.430;9.888;2022-07-31T18:44:45;95101.81;;;25.56;45.80
38026;BME280;23836;48.430;9.888;2022-07-31T18:49:36;95108.47;;;25.13;45.47
38026;BME280;23836;48.430;9.888;2022-07-31T18:54:26;95098.09;;;24.72;46.16
38026;BME280;23836;48.430;9.888;2022-07-31T18:59:16;95013.03;;;23.91;46.33
38026;BME280;23836;48.430;9.888;2022-07-31T19:04:07;95080.31;;;24.24;46.88
38026;BME280;23836;48.430;9.888;2022-07-31T19:08:57;95080.84;;;24.17;47.19
38026;BME280;23836;48.430;9.888;2022-07-31T19:13:48;95130.88;;;24.25;47.61
38026;BME280;23836;48.430;9.888;2022-07-31T19:18:39;95134.50;;;23.99;47.44
38026;BME280;23836;48.430;9.888;2022-07-31T19:23:29;95073.56;;;23.71;47.63
38026;BME280;23836;48.430;9.888;2022-07-31T19:28:20;95091.28;;;23.68;48.02
38026;BME280;23836;48.430;9.888;2022-07-31T19:33:10;95081.41;;;23.63;47.79
38026;BME280;23836;48.430;9.888;2022-07-31T19:38:02;95047.16;;;23.32;47.78
38026;BME280;23836;48.430;9.888;2022-07-31T19:42:53;95131.75;;;24.08;48.27
38026;BME280;23836;48.430;9.888;2022-07-31T19:47:43;95105.66;;;23.86;47.80
38026;BME280;23836;48.430;9.888;2022-07-31T19:52:34;95142.41;;;24.22;48.15
38026;BME280;23836;48.430;9.888;2022-07-31T19:57:24;95126.22;;;23.96;47.83
38026;BME280;23836;48.430;9.888;2022-07-31T20:02:14;95120.69;;;24.13;51.70
38026;BME280;23836;48.430;9.888;2022-07-31T20:07:05;95140.16;;;24.24;52.17
38026;BME280;23836;48.430;9.888;2022-07-31T20:11:55;95133.06;;;24.02;52.42
38026;BME280;23836;48.430;9.888;2022-07-31T20:16:46;95148.13;;;23.26;51.17
38026;BME280;23836;48.430;9.888;2022-07-31T20:21:36;95139.34;;;23.29;54.29
38026;BME280;23836;48.430;9.888;2022-07-31T20:26:26;95127.50;;;23.33;55.03
38026;BME280;23836;48.430;9.888;2022-07-31T20:31:19;95148.59;;;23.45;55.34
38026;BME280;23836;48.430;9.888;2022-07-31T20:36:10;95095.75;;;23.08;55.62
38026;BME280;23836;48.430;9.888;2022-07-31T20:41:00;95149.09;;;23.30;56.26
38026;BME280;23836;48.430;9.888;2022-07-31T20:45:51;95150.38;;;23.24;56.48
38026;BME280;23836;48.430;9.888;2022-07-31T20:50:42;95122.72;;;22.69;57.51
38026;BME280;23836;48.430;9.888;2022-07-31T20:55:32;95131.53;;;22.75;58.63
38026;BME280;23836;48.430;9.888;2022-07-31T21:00:24;95111.41;;;22.58;58.16
38026;BME280;23836;48.430;9.888;2022-07-31T21:05:14;95118.91;;;22.61;57.89
38026;BME280;23836;48.430;9.888;2022-07-31T21:10:05;95097.03;;;22.32;57.72
38026;BME280;23836;48.430;9.888;2022-07-31T21:14:55;95143.78;;;22.46;58.32
38026;BME280;23836;48.430;9.888;2022-07-31T21:19:46;95117.19;;;22.08;58.01
38026;BME280;23836;48.430;9.888;2022-07-31T21:24:36;95100.25;;;21.53;58.39
38026;BME280;23836;48.430;9.888;2022-07-31T21:29:27;95132.38;;;21.46;58.76
38026;BME280;23836;48.430;9.888;2022-07-31T21:34:18;95157.44;;;21.83;60.78
38026;BME280;23836;48.430;9.888;2022-07-31T21:39:09;95143.78;;;21.97;59.57
38026;BME280;23836;48.430;9.888;2022-07-31T21:43:59;95147.44;;;21.92;59.68
38026;BME280;23836;48.430;9.888;2022-07-31T21:48:50;95165.84;;;22.13;60.09
38026;BME280;23836;48.430;9.888;2022-07-31T21:53:40;95067.38;;;21.46;59.70
38026;BME280;23836;48.430;9.888;2022-07-31T21:58:31;95123.09;;;21.61;61.15
38026;BME280;23836;48.430;9.888;2022-07-31T22:03:21;95180.56;;;21.89;60.80
38026;BME280;23836;48.430;9.888;2022-07-31T22:08:14;95095.25;;;21.15;61.59
38026;BME280;23836;48.430;9.888;2022-07-31T22:13:05;95138.03;;;21.36;60.39
38026;BME280;23836;48.430;9.888;2022-07-31T22:17:56;95206.06;;;21.57;62.09
38026;BME280;23836;48.430;9.888;2022-07-31T22:22:47;95192.88;;;21.64;61.63
38026;BME280;23836;48.430;9.888;2022-07-31T22:27:38;95167.22;;;21.16;61.91
38026;BME280;23836;48.430;9.888;2022-07-31T22:32:41;95203.69;;;21.19;62.91
38026;BME280;23836;48.430;9.888;2022-07-31T22:37:32;95076.88;;;20.08;63.34
38026;BME280;23836;48.430;9.888;2022-07-31T22:42:23;95103.41;;;19.92;65.33
38026;BME280;23836;48.430;9.888;2022-07-31T22:47:15;95136.94;;;19.91;66.64
38026;BME280;23836;48.430;9.888;2022-07-31T22:52:06;95139.13;;;19.89;67.50
38026;BME280;23836;48.430;9.888;2022-07-31T22:56:56;95052.66;;;19.33;66.82
38026;BME280;23836;48.430;9.888;2022-07-31T23:01:46;95143.84;;;19.97;67.33
38026;BME280;23836;48.430;9.888;2022-07-31T23:06:37;95155.53;;;20.20;67.93
38026;BME280;23836;48.430;9.888;2022-07-31T23:11:27;95203.13;;;20.58;66.30
38026;BME280;23836;48.430;9.888;2022-07-31T23:16:18;95179.63;;;20.44;65.37
38026;BME280;23836;48.430;9.888;2022-07-31T23:21:12;95203.25;;;20.53;65.77
38026;BME280;23836;48.430;9.888;2022-07-31T23:26:02;95143.44;;;19.90;64.97
38026;BME280;23836;48.430;9.888;2022-07-31T23:30:53;95207.19;;;20.19;66.07
38026;BME280;23836;48.430;9.888;2022-07-31T23:35:43;95192.06;;;20.04;63.35
38026;BME280;23836;48.430;9.888;2022-07-31T23:40:33;95138.97;;;19.66;65.46
38026;BME280;23836;48.430;9.888;2022-07-31T23:45:24;95207.66;;;20.35;62.92
38026;BME280;23836;48.430;9.888;2022-07-31T23:50:15;95184.25;;;20.30;63.85
38026;BME280;23836;48.430;9.888;2022-07-31T23:55:06;95189.81;;;20.61;60.82
38026;BME280;23836;48.430;9.888;2022-07-31T23:59:56;95117.75;;;20.29;60.38
